Terminal Aerodrome Forecast
Issued by NWS

Home | Current Version | Previous Version | Text Only | Print | Product List | Glossary On
Versions: 1 2 3 4 5 6 7 8 9 10 11 12 13 14 15 16 17 18 19 20 21 22 23 24 25 26 27
000
FTUS41 KPBZ 301306 AAA
TAFZZV
TAF AMD
KZZV 301306Z 3013/0112 07003KT P6SM FEW011
     FM301600 12007KT P6SM BKN050
     FM302000 12005KT 3SM -RA OVC035
     FM302200 12005KT 2SM -RA BR OVC020
     FM010400 15007KT 4SM -RA OVC007
     FM011000 20006KT P6SM OVC012=

USA.gov is the U.S. government's official web portal to all federal, state and local government web resources and services.